Skip Navigation Links Skip Navigation Links

Current Weather

Sioux Gateway, Sioux City, Iowa

For information only: do not use for flight planning or navigation.
Latest weather
Observation time Monday, October 18, 2021 1:52 PM CDT
Local time Monday, October 18, 2021 2:28 PM CDT
Flight conditions Visual Meteorological Conditions
Winds
Wind direction South-Southeast (150°)
Wind speed 17 mph
Wind gusting to 24 mph
Visibility 10 mi.
Sky condition
Ceiling unlimited
Sky clear
Temperature 73°F
Dewpoint 42°F
Altimeter 29.92 in.Hg
Derived measurements
Relative humidity 33%
Density altitude 2142 ft.
Sea-level pressure 29.91 in.Hg
Remarks
Automated weather observing station with precipitation discriminator.
METAR KSUX 181852Z 15015G21KT 10SM CLR 23/06 A2992 RMK AO2 SLP130 T02280056

Settings

Location code

InnerDrive.Weather 4.0.6770.0 Release CLR 4.0.30319.42000
Copyright ©2018 Inner Drive Technology. All rights reserved. Portions Copyright ©1986-2018 David Braverman.

Find weather

Site navigation


Skip Navigation Links

Place info

Page info

PayPal - The safer, easier way to pay online!

Return home.

Copyright ©2021 Inner Drive Technology. Purveyors of fine, hand-crafted computer software. Page printed 2021-10-18T19:28:56 UTC.